createdAt,value
2022-11-09T00:00:11.302Z,336
2022-11-09T00:02:10.998Z,328
2022-11-09T00:03:09.890Z,336
2022-11-09T00:05:10.562Z,324
2022-11-09T00:06:10.649Z,335
2022-11-09T00:07:10.628Z,340
2022-11-09T00:08:10.121Z,336
2022-11-09T00:09:11.012Z,335
2022-11-09T00:10:10.412Z,351
2022-11-09T00:11:10.700Z,342
2022-11-09T00:13:10.433Z,344
2022-11-09T00:14:10.347Z,331
2022-11-09T00:15:11.102Z,332
2022-11-09T00:16:10.238Z,334
2022-11-09T00:17:10.856Z,335
2022-11-09T00:18:29.652Z,336
2022-11-09T00:19:10.851Z,335
2022-11-09T00:20:10.671Z,336
2022-11-09T00:21:11.116Z,342
2022-11-09T00:22:10.184Z,335
2022-11-09T00:23:10.476Z,370
2022-11-09T00:24:10.881Z,319
2022-11-09T00:25:11.341Z,315
2022-11-09T00:26:10.747Z,323
2022-11-09T00:27:15.169Z,327
2022-11-09T00:28:10.232Z,328
2022-11-09T00:29:10.873Z,332
2022-11-09T00:30:11.477Z,343
2022-11-09T00:31:10.659Z,349
2022-11-09T00:32:10.866Z,347
2022-11-09T00:33:10.496Z,358
2022-11-09T00:34:10.507Z,352
2022-11-09T00:35:10.863Z,342
2022-11-09T00:36:10.196Z,334
2022-11-09T00:37:10.203Z,336
2022-11-09T00:38:10.424Z,334
2022-11-09T00:39:10.348Z,345
2022-11-09T00:40:10.792Z,342
2022-11-09T00:41:10.811Z,318
2022-11-09T00:42:11.043Z,350
2022-11-09T00:43:10.387Z,349
2022-11-09T00:44:10.973Z,351
2022-11-09T00:45:10.602Z,345
2022-11-09T00:46:10.755Z,343
2022-11-09T00:47:10.098Z,337
2022-11-09T00:48:10.426Z,340
2022-11-09T00:49:10.199Z,344
2022-11-09T00:50:10.388Z,337
2022-11-09T00:51:10.523Z,342
2022-11-09T00:53:10.127Z,340
2022-11-09T00:54:10.750Z,348
2022-11-09T00:55:10.884Z,351
2022-11-09T00:56:10.871Z,349
2022-11-09T00:57:10.908Z,340
2022-11-09T00:58:11.047Z,346
2022-11-09T00:59:10.207Z,344
2022-11-09T01:00:10.981Z,326
2022-11-09T01:01:11.575Z,332
2022-11-09T01:02:10.918Z,331
2022-11-09T01:03:11.327Z,339
2022-11-09T01:04:10.835Z,352
2022-11-09T01:05:11.285Z,348
2022-11-09T01:07:10.109Z,353
2022-11-09T01:08:10.358Z,341
2022-11-09T01:09:10.650Z,342
2022-11-09T01:10:10.939Z,340
2022-11-09T01:11:10.937Z,338
2022-11-09T01:12:10.197Z,334
2022-11-09T01:13:10.405Z,330
2022-11-09T01:14:10.912Z,337
2022-11-09T01:15:11.814Z,343
2022-11-09T01:16:10.250Z,340
2022-11-09T01:17:11.237Z,338
2022-11-09T01:18:10.388Z,345
2022-11-09T01:19:10.590Z,332
2022-11-09T01:20:10.723Z,338
2022-11-09T01:21:10.542Z,336
2022-11-09T01:22:10.822Z,340
2022-11-09T01:23:10.823Z,349
2022-11-09T01:24:10.865Z,348
2022-11-09T01:25:10.578Z,344
2022-11-09T01:27:10.987Z,332
2022-11-09T01:28:10.140Z,339
2022-11-09T01:29:10.237Z,348
2022-11-09T01:30:11.265Z,351
2022-11-09T01:31:11.375Z,336
2022-11-09T01:32:10.921Z,340
2022-11-09T01:33:10.959Z,343
2022-11-09T01:34:10.656Z,330
2022-11-09T01:35:11.081Z,336
2022-11-09T01:36:10.160Z,355
2022-11-09T01:37:10.245Z,327
2022-11-09T01:38:10.501Z,336
2022-11-09T01:39:10.634Z,335
2022-11-09T01:40:10.860Z,337
2022-11-09T01:41:10.964Z,333
2022-11-09T01:43:10.162Z,326
2022-11-09T01:44:10.841Z,336
2022-11-09T01:45:11.176Z,347
2022-11-09T01:46:10.620Z,332
2022-11-09T01:47:10.683Z,344
2022-11-09T01:48:10.826Z,351
2022-11-09T01:49:10.784Z,343
2022-11-09T01:50:10.857Z,341
2022-11-09T01:51:10.965Z,348
2022-11-09T01:52:10.298Z,337
2022-11-09T01:53:11.114Z,339
2022-11-09T01:54:11.231Z,345
2022-11-09T01:55:10.371Z,343
2022-11-09T01:56:10.866Z,336
2022-11-09T01:57:11.163Z,328
2022-11-09T01:58:10.862Z,334
2022-11-09T01:59:11.460Z,337
2022-11-09T02:00:11.341Z,343
2022-11-09T02:01:10.832Z,336
2022-11-09T02:02:10.271Z,345
2022-11-09T02:03:10.820Z,352
2022-11-09T02:04:11.181Z,350
2022-11-09T02:05:10.111Z,347
2022-11-09T02:06:10.261Z,339
2022-11-09T02:07:10.361Z,345
2022-11-09T02:08:10.885Z,351
2022-11-09T02:09:10.991Z,353
2022-11-09T02:10:10.889Z,335
2022-11-09T02:11:10.733Z,325
2022-11-09T02:12:11.285Z,334
2022-11-09T02:13:10.416Z,343
2022-11-09T02:14:10.263Z,346
2022-11-09T02:15:10.759Z,351
2022-11-09T02:16:11.222Z,341
2022-11-09T02:17:10.042Z,351
2022-11-09T02:19:10.588Z,344
2022-11-09T02:20:10.992Z,342
2022-11-09T02:22:11.257Z,341
2022-11-09T02:24:10.740Z,351
2022-11-09T02:25:11.125Z,350
2022-11-09T02:26:10.546Z,343
2022-11-09T02:27:10.627Z,342
2022-11-09T02:28:10.849Z,348
2022-11-09T02:29:10.917Z,352
2022-11-09T02:31:11.026Z,342
2022-11-09T02:32:10.466Z,344
2022-11-09T02:33:10.492Z,335
2022-11-09T02:34:10.301Z,338
2022-11-09T02:35:10.456Z,358
2022-11-09T02:36:10.903Z,357
2022-11-09T02:37:11.126Z,353
2022-11-09T02:38:10.608Z,352
2022-11-09T02:39:11.240Z,345
2022-11-09T02:40:10.506Z,346
2022-11-09T02:41:11.117Z,353
2022-11-09T02:42:11.416Z,342
2022-11-09T02:43:11.123Z,340
2022-11-09T02:44:10.879Z,348
2022-11-09T02:46:10.988Z,349
2022-11-09T02:50:10.656Z,355
2022-11-09T02:51:10.933Z,349
2022-11-09T02:52:11.105Z,346
2022-11-09T02:53:11.201Z,350
2022-11-09T02:54:10.905Z,344
2022-11-09T02:55:11.196Z,349
2022-11-09T02:56:10.321Z,353
2022-11-09T02:57:10.395Z,352
2022-11-09T02:58:10.611Z,357
2022-11-09T02:59:10.786Z,352
2022-11-09T03:00:11.520Z,351
2022-11-09T03:01:10.847Z,343
2022-11-09T03:04:10.461Z,350
2022-11-09T03:05:10.881Z,356
2022-11-09T03:07:10.318Z,344
2022-11-09T03:08:10.500Z,341
2022-11-09T03:09:10.406Z,347
2022-11-09T03:10:10.716Z,339
2022-11-09T03:11:11.360Z,340
2022-11-09T03:12:10.721Z,344
2022-11-09T03:13:11.025Z,341
2022-11-09T03:14:10.538Z,340
2022-11-09T03:15:10.804Z,332
2022-11-09T03:16:10.889Z,336
2022-11-09T03:17:10.236Z,341
2022-11-09T03:18:10.416Z,343
2022-11-09T03:19:10.721Z,336
2022-11-09T03:20:10.416Z,342
2022-11-09T03:21:10.670Z,349
2022-11-09T03:22:10.915Z,346
2022-11-09T03:23:10.991Z,341
2022-11-09T03:25:11.080Z,347
2022-11-09T03:26:10.221Z,350
2022-11-09T03:27:10.695Z,343
2022-11-09T03:29:10.777Z,349
2022-11-09T03:30:11.220Z,351
2022-11-09T03:31:10.215Z,358
2022-11-09T03:32:10.424Z,351
2022-11-09T03:33:10.456Z,344
2022-11-09T03:34:10.223Z,347
2022-11-09T03:35:10.514Z,357
2022-11-09T03:36:11.010Z,349
2022-11-09T03:37:10.257Z,350
2022-11-09T03:38:10.695Z,354
2022-11-09T03:39:10.212Z,350
2022-11-09T03:40:10.157Z,346
2022-11-09T03:41:10.350Z,341
2022-11-09T03:42:10.464Z,340
2022-11-09T03:43:10.689Z,346
2022-11-09T03:44:11.034Z,321
2022-11-09T03:45:10.712Z,367
2022-11-09T03:46:11.149Z,359
2022-11-09T03:47:10.067Z,349
2022-11-09T03:48:10.082Z,346
2022-11-09T03:49:11.736Z,341
2022-11-09T03:50:11.324Z,343
2022-11-09T03:51:10.532Z,356
2022-11-09T03:52:10.937Z,347
2022-11-09T03:53:11.206Z,333
2022-11-09T03:54:11.058Z,350
2022-11-09T03:55:11.427Z,346
2022-11-09T03:56:10.744Z,347
2022-11-09T03:57:10.678Z,348
2022-11-09T03:58:10.995Z,347
2022-11-09T03:59:10.215Z,356
2022-11-09T04:00:11.072Z,359
2022-11-09T04:01:10.472Z,360
2022-11-09T04:02:11.237Z,352
2022-11-09T04:03:10.734Z,362
2022-11-09T04:04:10.513Z,353
2022-11-09T04:05:10.923Z,348
2022-11-09T04:06:10.222Z,349
2022-11-09T04:07:10.640Z,338
2022-11-09T04:09:10.354Z,352
2022-11-09T04:10:10.457Z,351
2022-11-09T04:11:10.497Z,362
2022-11-09T04:12:10.574Z,366
2022-11-09T04:13:10.329Z,359
2022-11-09T04:14:10.765Z,362
2022-11-09T04:15:11.188Z,367
2022-11-09T04:16:10.508Z,363
2022-11-09T04:17:10.609Z,360
2022-11-09T04:18:11.112Z,358
2022-11-09T04:19:10.348Z,356
2022-11-09T04:20:10.702Z,352
2022-11-09T04:21:10.991Z,347
2022-11-09T04:22:10.897Z,349
2022-11-09T04:23:10.941Z,356
2022-11-09T04:24:10.550Z,362
2022-11-09T04:25:10.542Z,352
2022-11-09T04:26:11.312Z,357
2022-11-09T04:27:10.301Z,354
2022-11-09T04:28:10.569Z,343
2022-11-09T04:29:10.688Z,335
2022-11-09T04:30:10.947Z,346
2022-11-09T04:31:10.742Z,350
2022-11-09T04:32:10.986Z,351
2022-11-09T04:33:10.241Z,353
2022-11-09T04:34:10.607Z,348
2022-11-09T04:35:10.988Z,343
2022-11-09T04:36:10.380Z,349
2022-11-09T04:37:10.605Z,347
2022-11-09T04:38:10.909Z,352
2022-11-09T04:39:10.947Z,344
2022-11-09T04:40:11.117Z,357
2022-11-09T04:41:11.211Z,355
2022-11-09T04:42:10.424Z,345
2022-11-09T04:43:10.433Z,350
2022-11-09T04:44:10.529Z,353
2022-11-09T04:45:10.626Z,346
2022-11-09T04:46:10.925Z,344
2022-11-09T04:47:11.006Z,335
2022-11-09T04:48:10.399Z,341
2022-11-09T04:49:10.820Z,356
2022-11-09T04:50:11.403Z,355
2022-11-09T04:51:10.681Z,354
2022-11-09T04:52:10.617Z,347
2022-11-09T04:53:10.574Z,337
2022-11-09T04:54:10.913Z,343
2022-11-09T04:55:11.136Z,349
2022-11-09T04:56:10.456Z,351
2022-11-09T04:57:10.636Z,347
2022-11-09T04:58:10.829Z,338
2022-11-09T04:59:11.136Z,352
2022-11-09T05:00:10.974Z,353
2022-11-09T05:01:10.509Z,357
2022-11-09T05:02:10.543Z,354
2022-11-09T05:03:10.938Z,349
2022-11-09T05:04:10.773Z,344
2022-11-09T05:05:11.395Z,349
2022-11-09T05:06:10.751Z,344
2022-11-09T05:07:10.800Z,345
2022-11-09T05:08:10.568Z,355
2022-11-09T05:09:11.204Z,358
2022-11-09T05:10:32.728Z,356
2022-11-09T05:11:10.934Z,357
2022-11-09T05:12:10.343Z,362
2022-11-09T05:13:10.750Z,366
2022-11-09T05:14:10.562Z,346
2022-11-09T05:15:10.879Z,345
2022-11-09T05:16:10.196Z,348
2022-11-09T05:17:11.302Z,363
2022-11-09T05:18:10.675Z,351
2022-11-09T05:19:11.452Z,349
2022-11-09T05:20:11.393Z,352
2022-11-09T05:21:10.345Z,355
2022-11-09T05:22:10.799Z,362
2022-11-09T05:23:11.198Z,353
2022-11-09T05:24:10.899Z,346
2022-11-09T05:26:11.232Z,352
2022-11-09T05:27:10.728Z,345
2022-11-09T05:28:10.764Z,337
2022-11-09T05:29:11.443Z,344
2022-11-09T05:30:10.952Z,349
2022-11-09T05:31:10.505Z,360
2022-11-09T05:32:11.235Z,351
2022-11-09T05:33:10.604Z,349
2022-11-09T05:35:10.839Z,330
2022-11-09T05:36:11.335Z,363
2022-11-09T05:37:10.619Z,364
2022-11-09T05:38:10.966Z,360
2022-11-09T05:39:11.588Z,349
2022-11-09T05:40:11.369Z,347
2022-11-09T05:41:10.616Z,348
2022-11-09T05:42:11.066Z,347
2022-11-09T05:43:10.332Z,346
2022-11-09T05:44:10.952Z,344
2022-11-09T05:45:40.277Z,337
2022-11-09T05:46:10.277Z,349
2022-11-09T05:47:10.537Z,358
2022-11-09T05:48:10.896Z,357
2022-11-09T05:49:10.872Z,343
2022-11-09T05:50:11.481Z,350
2022-11-09T05:51:10.848Z,356
2022-11-09T05:52:11.211Z,360
2022-11-09T05:53:10.522Z,351
2022-11-09T05:54:10.783Z,373
2022-11-09T05:55:11.410Z,336
2022-11-09T05:56:10.820Z,344
2022-11-09T05:57:11.073Z,349
2022-11-09T05:58:10.555Z,353
2022-11-09T05:59:10.751Z,358
2022-11-09T06:00:11.810Z,357
2022-11-09T06:01:10.345Z,345
2022-11-09T06:02:10.806Z,343
2022-11-09T06:03:10.283Z,347
2022-11-09T06:04:10.809Z,346
2022-11-09T06:05:10.850Z,347
2022-11-09T06:06:11.643Z,346
2022-11-09T06:07:11.851Z,356
2022-11-09T06:08:10.305Z,367
2022-11-09T06:09:10.636Z,357
2022-11-09T06:10:11.200Z,354
2022-11-09T06:11:11.316Z,363
2022-11-09T06:12:10.739Z,350
2022-11-09T06:13:11.256Z,339
2022-11-09T06:14:11.021Z,352
2022-11-09T06:15:11.296Z,347
2022-11-09T06:16:10.932Z,352
2022-11-09T06:17:10.799Z,346
2022-11-09T06:18:11.202Z,342
2022-11-09T06:19:11.116Z,345
2022-11-09T06:20:10.553Z,346
2022-11-09T06:21:11.026Z,343
2022-11-09T06:22:10.202Z,355
2022-11-09T06:23:10.428Z,349
2022-11-09T06:24:10.718Z,358
2022-11-09T06:25:11.407Z,356
2022-11-09T06:26:11.159Z,361
2022-11-09T06:27:10.986Z,358
2022-11-09T06:28:10.895Z,354
2022-11-09T06:29:11.354Z,361
2022-11-09T06:30:10.951Z,358
2022-11-09T06:31:10.123Z,354
2022-11-09T06:32:10.941Z,402
2022-11-09T06:33:10.610Z,375
2022-11-09T06:34:11.103Z,360
2022-11-09T06:35:10.232Z,361
2022-11-09T06:36:10.700Z,367
2022-11-09T06:37:11.176Z,359
2022-11-09T06:38:10.431Z,357
2022-11-09T06:39:10.321Z,358
2022-11-09T06:40:10.757Z,357
2022-11-09T06:41:10.591Z,364
2022-11-09T06:42:10.507Z,362
2022-11-09T06:43:11.233Z,355
2022-11-09T06:44:11.055Z,352
2022-11-09T06:45:11.142Z,357
2022-11-09T06:46:10.970Z,360
2022-11-09T06:47:11.295Z,368
2022-11-09T06:48:11.169Z,357
2022-11-09T06:49:11.383Z,348
2022-11-09T06:50:11.016Z,375
2022-11-09T06:51:10.867Z,381
2022-11-09T06:52:10.195Z,364
2022-11-09T06:54:10.673Z,369
2022-11-09T06:55:11.098Z,368
2022-11-09T06:56:10.990Z,374
2022-11-09T06:57:11.247Z,364
2022-11-09T06:58:10.476Z,359
2022-11-09T06:59:11.034Z,361
2022-11-09T07:00:10.901Z,365
2022-11-09T07:01:10.809Z,367
2022-11-09T07:02:11.507Z,369
2022-11-09T07:03:10.886Z,360
2022-11-09T07:05:18.466Z,359
2022-11-09T07:07:27.948Z,369
2022-11-09T07:08:10.565Z,363
2022-11-09T07:09:10.530Z,383
2022-11-09T07:10:10.978Z,348
2022-11-09T07:11:11.278Z,338
2022-11-09T07:12:10.629Z,346
2022-11-09T07:13:10.656Z,354
2022-11-09T07:14:10.879Z,353
2022-11-09T07:15:11.194Z,366
2022-11-09T07:16:10.475Z,357
2022-11-09T07:17:10.973Z,359
2022-11-09T07:18:10.502Z,353
2022-11-09T07:19:11.079Z,351
2022-11-09T07:20:10.662Z,355
2022-11-09T07:21:14.222Z,351
2022-11-09T07:22:10.760Z,357
2022-11-09T07:23:11.163Z,371
2022-11-09T07:24:11.096Z,374
2022-11-09T07:25:10.719Z,360
2022-11-09T07:26:11.264Z,361
2022-11-09T07:27:10.570Z,354
2022-11-09T07:28:11.018Z,352
2022-11-09T07:29:11.285Z,373
2022-11-09T07:30:10.872Z,374
2022-11-09T07:32:10.948Z,366
2022-11-09T07:33:11.181Z,359
2022-11-09T07:34:10.532Z,352
2022-11-09T07:35:11.144Z,356
2022-11-09T07:36:10.701Z,351
2022-11-09T07:37:10.627Z,358
2022-11-09T07:38:11.094Z,360
2022-11-09T07:39:11.539Z,362
2022-11-09T07:40:11.101Z,360
2022-11-09T07:41:11.169Z,361
2022-11-09T07:42:10.396Z,359
2022-11-09T07:43:10.951Z,351
2022-11-09T07:44:10.690Z,350
2022-11-09T07:45:11.038Z,354
2022-11-09T07:47:14.501Z,360
2022-11-09T07:48:11.221Z,316
2022-11-09T07:49:10.343Z,332
2022-11-09T07:50:10.954Z,343
2022-11-09T07:51:11.214Z,357
2022-11-09T07:52:10.664Z,353
2022-11-09T07:53:10.748Z,349
2022-11-09T07:54:11.029Z,345
2022-11-09T07:56:10.797Z,355
2022-11-09T07:57:11.040Z,345
2022-11-09T07:58:10.598Z,346
2022-11-09T07:59:10.930Z,339
2022-11-09T08:00:10.796Z,336
2022-11-09T08:01:10.861Z,341
2022-11-09T08:02:10.999Z,355
2022-11-09T08:03:10.512Z,350
2022-11-09T08:04:10.963Z,346
2022-11-09T08:05:10.149Z,345
2022-11-09T08:06:14.343Z,346
2022-11-09T08:07:10.468Z,349
2022-11-09T08:08:10.822Z,356
2022-11-09T08:09:11.197Z,354
2022-11-09T08:10:10.629Z,349
2022-11-09T08:11:10.897Z,341
2022-11-09T08:12:11.379Z,348
2022-11-09T08:14:11.106Z,330
2022-11-09T08:15:10.555Z,339
2022-11-09T08:16:10.813Z,344
2022-11-09T08:17:10.979Z,335
2022-11-09T08:18:10.720Z,341
2022-11-09T08:19:10.881Z,354
2022-11-09T08:20:11.252Z,350
2022-11-09T08:21:10.279Z,351
2022-11-09T08:22:10.783Z,344
2022-11-09T08:23:10.938Z,345
2022-11-09T08:24:10.477Z,347
2022-11-09T08:25:11.037Z,335
2022-11-09T08:27:10.470Z,337
2022-11-09T08:28:14.477Z,336
2022-11-09T08:29:10.463Z,342
2022-11-09T08:30:11.512Z,340
2022-11-09T08:31:10.926Z,350
2022-11-09T08:32:10.366Z,351
2022-11-09T08:33:10.732Z,339
2022-11-09T08:34:11.092Z,336
2022-11-09T08:35:10.359Z,342
2022-11-09T08:36:10.803Z,346
2022-11-09T08:37:10.744Z,350
2022-11-09T08:39:10.946Z,340
2022-11-09T08:41:13.631Z,341
2022-11-09T08:42:10.446Z,357
2022-11-09T08:43:10.837Z,345
2022-11-09T08:44:11.079Z,341
2022-11-09T08:45:11.381Z,349
2022-11-09T08:46:10.697Z,347
2022-11-09T08:47:10.728Z,354
2022-11-09T08:48:10.533Z,355
2022-11-09T08:49:10.703Z,354
2022-11-09T08:50:11.007Z,348
2022-11-09T08:51:10.627Z,344
2022-11-09T08:52:10.927Z,336
2022-11-09T08:54:10.516Z,339
2022-11-09T08:55:10.664Z,331
2022-11-09T08:56:11.087Z,336
2022-11-09T08:57:10.944Z,343
2022-11-09T08:58:10.642Z,345
2022-11-09T09:00:11.253Z,331
2022-11-09T09:01:16.431Z,359
2022-11-09T09:02:10.408Z,355
2022-11-09T09:03:10.938Z,354
2022-11-09T09:04:10.281Z,352
2022-11-09T09:05:10.293Z,349
2022-11-09T09:06:10.738Z,344
2022-11-09T09:07:11.445Z,342
2022-11-09T09:08:10.866Z,336
2022-11-09T09:09:11.141Z,329
2022-11-09T09:10:10.307Z,330
2022-11-09T09:11:11.049Z,327
2022-11-09T09:12:10.399Z,330
2022-11-09T09:13:10.665Z,335
2022-11-09T09:14:11.086Z,336
2022-11-09T09:15:11.339Z,345
2022-11-09T09:16:10.912Z,354
2022-11-09T09:17:10.796Z,337
2022-11-09T09:18:10.787Z,333
2022-11-09T09:20:11.201Z,320
2022-11-09T09:21:10.327Z,326
2022-11-09T09:22:10.557Z,331
2022-11-09T09:23:10.937Z,339
2022-11-09T09:24:10.642Z,338
2022-11-09T09:25:10.978Z,342
2022-11-09T09:26:10.184Z,354
2022-11-09T09:27:10.940Z,338
2022-11-09T09:28:10.500Z,340
2022-11-09T09:29:11.294Z,341
2022-11-09T09:30:10.851Z,344
2022-11-09T09:31:13.133Z,334
2022-11-09T09:32:11.108Z,340
2022-11-09T09:33:10.602Z,345
2022-11-09T09:34:11.532Z,341
2022-11-09T09:35:10.471Z,342
2022-11-09T09:36:10.903Z,339
2022-11-09T09:37:11.522Z,338
2022-11-09T09:38:11.168Z,343
2022-11-09T09:39:10.821Z,338
2022-11-09T09:40:11.425Z,334
2022-11-09T09:41:10.393Z,343
2022-11-09T09:43:11.419Z,341
2022-11-09T09:44:10.830Z,343
2022-11-09T09:45:11.372Z,347
2022-11-09T09:46:10.668Z,344
2022-11-09T09:47:10.887Z,333
2022-11-09T09:48:10.514Z,332
2022-11-09T09:49:10.596Z,338
2022-11-09T09:50:10.946Z,323
2022-11-09T09:51:10.191Z,336
2022-11-09T09:52:10.360Z,333
2022-11-09T09:53:23.639Z,343
2022-11-09T09:54:10.751Z,348
2022-11-09T09:55:11.043Z,318
2022-11-09T09:56:10.562Z,312
2022-11-09T09:57:10.881Z,330
2022-11-09T09:58:10.747Z,336
2022-11-09T09:59:10.777Z,346
2022-11-09T10:00:11.874Z,339
2022-11-09T10:01:10.572Z,334
2022-11-09T10:02:10.598Z,336
2022-11-09T10:03:10.954Z,335
2022-11-09T10:04:10.209Z,325
2022-11-09T10:05:10.604Z,332
2022-11-09T10:06:11.092Z,339
2022-11-09T10:07:11.220Z,346
2022-11-09T10:08:10.674Z,342
2022-11-09T10:11:10.485Z,330
2022-11-09T10:12:10.458Z,364
2022-11-09T10:13:10.853Z,344
2022-11-09T10:14:10.222Z,346
2022-11-09T10:15:10.834Z,353
2022-11-09T10:16:10.304Z,340
2022-11-09T10:17:10.663Z,335
2022-11-09T10:18:10.856Z,333
2022-11-09T10:19:11.140Z,331
2022-11-09T10:20:10.452Z,333
2022-11-09T10:21:10.721Z,326
2022-11-09T10:22:10.906Z,329
2022-11-09T10:23:10.832Z,325
2022-11-09T10:24:11.362Z,342
2022-11-09T10:25:50.412Z,345
2022-11-09T10:26:15.724Z,339
2022-11-09T10:27:10.669Z,346
2022-11-09T10:28:17.691Z,350
2022-11-09T10:29:16.866Z,345
2022-11-09T10:30:10.457Z,344
2022-11-09T10:31:10.755Z,333
2022-11-09T10:32:11.476Z,336
2022-11-09T10:33:10.617Z,337
2022-11-09T10:34:10.736Z,342
2022-11-09T10:35:11.313Z,345
2022-11-09T10:36:10.586Z,334
2022-11-09T10:37:11.027Z,343
2022-11-09T10:39:11.145Z,351
2022-11-09T10:40:10.559Z,349
2022-11-09T10:41:11.058Z,346
2022-11-09T10:42:10.780Z,348
2022-11-09T10:43:11.086Z,343
2022-11-09T10:44:16.170Z,340
2022-11-09T10:45:10.802Z,347
2022-11-09T10:46:10.935Z,337
2022-11-09T10:47:11.269Z,332
2022-11-09T10:48:10.495Z,331
2022-11-09T10:49:10.723Z,329
2022-11-09T10:50:11.275Z,337
2022-11-09T10:51:11.146Z,335
2022-11-09T10:52:10.689Z,337
2022-11-09T10:53:11.191Z,340
2022-11-09T10:54:10.677Z,342
2022-11-09T10:55:11.480Z,336
2022-11-09T10:57:11.200Z,329
2022-11-09T10:58:11.041Z,328
2022-11-09T10:59:11.049Z,333
2022-11-09T11:00:11.266Z,338
2022-11-09T11:01:11.027Z,336
2022-11-09T11:02:11.040Z,339
2022-11-09T11:03:10.997Z,344
2022-11-09T11:04:10.771Z,322
2022-11-09T11:05:11.599Z,349
2022-11-09T11:06:10.873Z,354
2022-11-09T11:07:10.542Z,350
2022-11-09T11:08:10.733Z,348
2022-11-09T11:09:11.589Z,340
2022-11-09T11:10:11.297Z,324
2022-11-09T11:11:31.753Z,326
2022-11-09T11:12:10.844Z,329
2022-11-09T11:13:10.608Z,334
2022-11-09T11:14:10.376Z,329
2022-11-09T11:15:11.574Z,331
2022-11-09T11:16:11.662Z,328
2022-11-09T11:17:11.543Z,329
2022-11-09T11:18:11.419Z,337
2022-11-09T11:19:10.990Z,333
2022-11-09T11:20:10.937Z,337
2022-11-09T11:21:14.880Z,346
2022-11-09T11:23:11.512Z,336
2022-11-09T11:24:10.624Z,332
2022-11-09T11:25:11.165Z,329
2022-11-09T11:26:10.768Z,341
2022-11-09T11:27:11.405Z,346
2022-11-09T11:28:10.748Z,326
2022-11-09T11:29:11.463Z,325
2022-11-09T11:30:11.193Z,330
2022-11-09T11:31:10.720Z,335
2022-11-09T11:32:10.555Z,340
2022-11-09T11:34:11.123Z,344
2022-11-09T11:35:11.637Z,343
2022-11-09T11:36:10.993Z,348
2022-11-09T11:37:11.052Z,356
2022-11-09T11:38:10.433Z,345
2022-11-09T11:39:11.197Z,343
2022-11-09T11:40:10.804Z,338
2022-11-09T11:41:10.948Z,330
2022-11-09T11:42:10.487Z,328
2022-11-09T11:43:11.035Z,341
2022-11-09T11:44:11.040Z,337
2022-11-09T11:45:39.141Z,329
2022-11-09T11:46:11.003Z,333
2022-11-09T11:47:10.663Z,327
2022-11-09T11:49:11.142Z,334
2022-11-09T11:50:11.014Z,338
2022-11-09T11:52:10.918Z,337
2022-11-09T11:53:11.311Z,332
2022-11-09T11:54:11.844Z,331
2022-11-09T11:55:18.434Z,332
2022-11-09T11:56:10.877Z,338
2022-11-09T11:57:11.320Z,325
2022-11-09T11:58:10.753Z,340
2022-11-09T11:59:11.033Z,319
2022-11-09T12:00:11.322Z,314
2022-11-09T12:01:11.067Z,340
2022-11-09T12:02:10.497Z,338
2022-11-09T12:03:11.561Z,343
2022-11-09T12:04:10.679Z,337
2022-11-09T12:05:11.346Z,349
2022-11-09T12:06:11.061Z,344
2022-11-09T12:07:10.915Z,342
2022-11-09T12:08:10.699Z,349
2022-11-09T12:09:11.306Z,352
2022-11-09T12:10:11.025Z,343
2022-11-09T12:11:10.668Z,344
2022-11-09T12:12:11.019Z,343
2022-11-09T12:13:11.097Z,344
2022-11-09T12:14:10.705Z,340
2022-11-09T12:15:10.986Z,329
2022-11-09T12:16:10.453Z,356
2022-11-09T12:17:11.183Z,326
2022-11-09T12:18:10.779Z,329
2022-11-09T12:19:11.402Z,331
2022-11-09T12:20:10.834Z,329
2022-11-09T12:21:10.398Z,331
2022-11-09T12:22:10.795Z,335
2022-11-09T12:23:10.945Z,338
2022-11-09T12:24:10.976Z,331
2022-11-09T12:26:14.537Z,335
2022-11-09T12:27:31.082Z,344
2022-11-09T12:28:10.975Z,348
2022-11-09T12:30:10.563Z,343
2022-11-09T12:31:33.124Z,336
2022-11-09T12:32:10.094Z,323
2022-11-09T12:33:10.578Z,327
2022-11-09T12:34:10.868Z,342
2022-11-09T12:35:11.449Z,339
2022-11-09T12:36:10.929Z,331
2022-11-09T12:37:10.435Z,334
2022-11-09T12:38:11.103Z,337
2022-11-09T12:39:10.700Z,335
2022-11-09T12:40:10.673Z,339
2022-11-09T12:41:11.210Z,340
2022-11-09T12:42:10.486Z,337
2022-11-09T12:43:10.772Z,330
2022-11-09T12:44:15.891Z,341
2022-11-09T12:45:10.745Z,342
2022-11-09T12:46:11.201Z,328
2022-11-09T12:48:11.033Z,334
2022-11-09T12:49:10.424Z,333
2022-11-09T12:50:11.076Z,330
2022-11-09T12:51:10.725Z,344
2022-11-09T12:52:11.315Z,345
2022-11-09T12:53:10.869Z,335
2022-11-09T12:54:10.704Z,324
2022-11-09T12:55:11.326Z,334
2022-11-09T12:56:10.958Z,340
2022-11-09T12:57:10.565Z,346
2022-11-09T12:58:11.040Z,339
2022-11-09T12:59:10.233Z,333
2022-11-09T13:00:11.417Z,334
2022-11-09T13:01:10.263Z,335
2022-11-09T13:03:11.206Z,326
2022-11-09T13:05:10.685Z,330
2022-11-09T13:06:10.380Z,341
2022-11-09T13:07:10.499Z,343
2022-11-09T13:08:10.318Z,332
2022-11-09T13:10:10.952Z,334
2022-11-09T13:11:10.364Z,333
2022-11-09T13:12:15.882Z,334
2022-11-09T13:13:10.312Z,332
2022-11-09T13:14:10.563Z,333
2022-11-09T13:15:11.405Z,327
2022-11-09T13:16:10.772Z,333
2022-11-09T13:17:11.484Z,329
2022-11-09T13:18:11.092Z,339
2022-11-09T13:19:10.416Z,337
2022-11-09T13:20:11.411Z,332
2022-11-09T13:21:11.091Z,335
2022-11-09T13:22:10.696Z,345
2022-11-09T13:23:11.081Z,335
2022-11-09T13:24:14.160Z,340
2022-11-09T13:25:10.952Z,337
2022-11-09T13:26:10.894Z,329
2022-11-09T13:27:10.380Z,347
2022-11-09T13:28:10.677Z,337
2022-11-09T13:29:11.150Z,331
2022-11-09T13:30:10.897Z,330
2022-11-09T13:31:10.586Z,325
2022-11-09T13:32:11.061Z,330
2022-11-09T13:33:10.879Z,333
2022-11-09T13:34:10.451Z,337
2022-11-09T13:35:11.330Z,340
2022-11-09T13:36:10.954Z,345
2022-11-09T13:37:10.818Z,348
2022-11-09T13:38:10.959Z,339
2022-11-09T13:39:10.595Z,333
2022-11-09T13:40:10.586Z,339
2022-11-09T13:41:10.702Z,338
2022-11-09T13:42:11.098Z,334
2022-11-09T13:43:10.384Z,322
2022-11-09T13:44:09.955Z,361
2022-11-09T13:45:10.611Z,331
2022-11-09T13:46:11.327Z,328
2022-11-09T13:47:10.730Z,333
2022-11-09T13:48:11.157Z,337
2022-11-09T13:49:10.759Z,340
2022-11-09T13:50:11.175Z,342
2022-11-09T13:51:10.774Z,336
2022-11-09T13:52:10.480Z,335
2022-11-09T13:53:10.826Z,347
2022-11-09T13:54:11.116Z,341
2022-11-09T13:55:10.575Z,340
2022-11-09T13:56:11.118Z,336
2022-11-09T13:58:11.070Z,337
2022-11-09T13:59:11.059Z,344
2022-11-09T14:00:10.723Z,336
2022-11-09T14:01:10.866Z,343
2022-11-09T14:02:10.849Z,329
2022-11-09T14:03:10.378Z,331
2022-11-09T14:04:10.769Z,340
2022-11-09T14:05:10.631Z,349
2022-11-09T14:06:15.822Z,336
2022-11-09T14:07:11.066Z,341
2022-11-09T14:08:15.974Z,344
2022-11-09T14:09:11.539Z,340
2022-11-09T14:10:11.291Z,343
2022-11-09T14:11:11.262Z,345
2022-11-09T14:12:11.400Z,342
2022-11-09T14:14:11.799Z,344
2022-11-09T14:15:11.036Z,337
2022-11-09T14:16:10.957Z,326
2022-11-09T14:17:10.676Z,328
2022-11-09T14:18:11.007Z,341
2022-11-09T14:19:10.359Z,337
2022-11-09T14:20:12.192Z,351
2022-11-09T14:21:10.825Z,350
2022-11-09T14:22:10.196Z,332
2022-11-09T14:23:10.608Z,336
2022-11-09T14:24:11.362Z,345
2022-11-09T14:25:10.955Z,348
2022-11-09T14:27:11.121Z,343
2022-11-09T14:28:12.361Z,338
2022-11-09T14:29:11.094Z,335
2022-11-09T14:30:10.720Z,334
2022-11-09T14:31:10.826Z,341
2022-11-09T14:32:10.930Z,325
2022-11-09T14:33:10.504Z,333
2022-11-09T14:34:10.921Z,339
2022-11-09T14:35:11.427Z,330
2022-11-09T14:36:10.849Z,335
2022-11-09T14:37:11.223Z,342
2022-11-09T14:38:10.574Z,322
2022-11-09T14:39:11.309Z,341
2022-11-09T14:40:11.390Z,333